Duncan, Michigan
Current Conditions -  °F | °C
As of 9:16 AM on Monday 20 Oct 2014 (Local Time) from KTTF Reporting Station
Overcast Overcast  
Wind Chill: 44°   Ceiling: 7000
Heat Index: 48°   Visibility: 10mi
Dew Point: 45°   Wind: 9mph
Humidity: 87%   Direction: 220°SW
Pressure: 29.86"   Gusts: NA
Location:  41.9654°N, 83.6707°W
Report Text: KTTF 201316Z AUTO 22008KT 10SM OVC070 09/07 A2986 RMK AO2
Loading
Personal Weather Stations






























Interactive Weather Map
Tropical Storm Tracking
New forecast layout! Learn more

10-Day Weather Forecast

Advertisements
Track Severe Weather on mobile